sensor_id;sensor_type;location;lat;lon;timestamp;P1;durP1;ratioP1;P2;durP2;ratioP2
44046;SDS011;29713;-33.888;151.150;2022-07-18T00:00:43;1.37;;;0.40;;
44046;SDS011;29713;-33.888;151.150;2022-07-18T00:03:10;1.70;;;0.30;;
44046;SDS011;29713;-33.888;151.150;2022-07-18T00:05:37;0.53;;;0.20;;
44046;SDS011;29713;-33.888;151.150;2022-07-18T00:08:04;0.93;;;0.20;;
44046;SDS011;29713;-33.888;151.150;2022-07-18T00:10:32;0.63;;;0.20;;
44046;SDS011;29713;-33.888;151.150;2022-07-18T00:12:59;2.80;;;0.40;;
44046;SDS011;29713;-33.888;151.150;2022-07-18T00:15:26;1.23;;;0.33;;
44046;SDS011;29713;-33.888;151.150;2022-07-18T00:17:54;1.10;;;0.50;;
44046;SDS011;29713;-33.888;151.150;2022-07-18T00:20:21;0.83;;;0.40;;
44046;SDS011;29713;-33.888;151.150;2022-07-18T00:22:48;1.07;;;0.27;;
44046;SDS011;29713;-33.888;151.150;2022-07-18T00:25:16;1.40;;;0.33;;
44046;SDS011;29713;-33.888;151.150;2022-07-18T00:27:43;0.87;;;0.20;;
44046;SDS011;29713;-33.888;151.150;2022-07-18T00:30:10;0.57;;;0.20;;
44046;SDS011;29713;-33.888;151.150;2022-07-18T00:32:38;0.63;;;0.30;;
44046;SDS011;29713;-33.888;151.150;2022-07-18T00:35:06;1.57;;;0.30;;
44046;SDS011;29713;-33.888;151.150;2022-07-18T00:37:34;0.90;;;0.43;;
44046;SDS011;29713;-33.888;151.150;2022-07-18T00:40:01;3.17;;;0.30;;
44046;SDS011;29713;-33.888;151.150;2022-07-18T00:42:29;0.70;;;0.20;;
44046;SDS011;29713;-33.888;151.150;2022-07-18T00:44:56;0.60;;;0.27;;
44046;SDS011;29713;-33.888;151.150;2022-07-18T00:47:23;1.23;;;0.27;;
44046;SDS011;29713;-33.888;151.150;2022-07-18T00:49:51;1.10;;;0.30;;
44046;SDS011;29713;-33.888;151.150;2022-07-18T00:52:19;0.70;;;0.20;;
44046;SDS011;29713;-33.888;151.150;2022-07-18T00:54:46;0.97;;;0.20;;
44046;SDS011;29713;-33.888;151.150;2022-07-18T00:57:13;0.70;;;0.33;;
44046;SDS011;29713;-33.888;151.150;2022-07-18T00:59:41;0.97;;;0.13;;
44046;SDS011;29713;-33.888;151.150;2022-07-18T01:02:26;1.13;;;0.20;;
44046;SDS011;29713;-33.888;151.150;2022-07-18T01:04:53;4.00;;;0.40;;
44046;SDS011;29713;-33.888;151.150;2022-07-18T01:07:21;0.93;;;0.20;;
44046;SDS011;29713;-33.888;151.150;2022-07-18T01:09:48;0.83;;;0.20;;
44046;SDS011;29713;-33.888;151.150;2022-07-18T01:12:15;2.33;;;0.20;;
44046;SDS011;29713;-33.888;151.150;2022-07-18T01:14:43;1.30;;;0.20;;
44046;SDS011;29713;-33.888;151.150;2022-07-18T01:17:15;1.07;;;0.40;;
44046;SDS011;29713;-33.888;151.150;2022-07-18T01:19:44;0.67;;;0.30;;
44046;SDS011;29713;-33.888;151.150;2022-07-18T01:22:12;0.60;;;0.30;;
44046;SDS011;29713;-33.888;151.150;2022-07-18T01:24:41;0.57;;;0.23;;
44046;SDS011;29713;-33.888;151.150;2022-07-18T01:27:12;0.63;;;0.20;;
44046;SDS011;29713;-33.888;151.150;2022-07-18T01:29:44;0.77;;;0.30;;
44046;SDS011;29713;-33.888;151.150;2022-07-18T01:32:13;0.83;;;0.20;;
44046;SDS011;29713;-33.888;151.150;2022-07-18T01:34:41;1.30;;;0.30;;
44046;SDS011;29713;-33.888;151.150;2022-07-18T01:37:09;4.77;;;0.70;;
44046;SDS011;29713;-33.888;151.150;2022-07-18T01:39:37;2.97;;;0.20;;
44046;SDS011;29713;-33.888;151.150;2022-07-18T01:42:06;2.28;;;0.22;;
44046;SDS011;29713;-33.888;151.150;2022-07-18T01:44:35;1.10;;;0.40;;
44046;SDS011;29713;-33.888;151.150;2022-07-18T01:47:04;0.75;;;0.20;;
44046;SDS011;29713;-33.888;151.150;2022-07-18T01:49:33;1.15;;;0.30;;
44046;SDS011;29713;-33.888;151.150;2022-07-18T01:52:01;0.20;;;0.20;;
44046;SDS011;29713;-33.888;151.150;2022-07-18T01:54:30;0.98;;;0.28;;
44046;SDS011;29713;-33.888;151.150;2022-07-18T01:56:59;1.70;;;0.20;;
44046;SDS011;29713;-33.888;151.150;2022-07-18T01:59:27;0.75;;;0.10;;
44046;SDS011;29713;-33.888;151.150;2022-07-18T02:01:54;0.38;;;0.10;;
44046;SDS011;29713;-33.888;151.150;2022-07-18T02:04:22;0.20;;;0.10;;
44046;SDS011;29713;-33.888;151.150;2022-07-18T02:07:09;1.15;;;0.40;;
44046;SDS011;29713;-33.888;151.150;2022-07-18T02:09:36;1.10;;;0.30;;
44046;SDS011;29713;-33.888;151.150;2022-07-18T02:12:04;3.65;;;0.25;;
44046;SDS011;29713;-33.888;151.150;2022-07-18T02:14:31;0.57;;;0.20;;
44046;SDS011;29713;-33.888;151.150;2022-07-18T02:16:58;1.98;;;0.20;;
44046;SDS011;29713;-33.888;151.150;2022-07-18T02:19:26;0.10;;;0.10;;
44046;SDS011;29713;-33.888;151.150;2022-07-18T02:21:53;0.95;;;0.25;;
44046;SDS011;29713;-33.888;151.150;2022-07-18T02:24:20;1.10;;;0.32;;
44046;SDS011;29713;-33.888;151.150;2022-07-18T02:26:48;2.50;;;0.20;;
44046;SDS011;29713;-33.888;151.150;2022-07-18T02:29:15;0.47;;;0.10;;
44046;SDS011;29713;-33.888;151.150;2022-07-18T02:31:42;4.50;;;2.13;;
44046;SDS011;29713;-33.888;151.150;2022-07-18T02:34:10;0.80;;;0.35;;
44046;SDS011;29713;-33.888;151.150;2022-07-18T02:36:37;0.63;;;0.20;;
44046;SDS011;29713;-33.888;151.150;2022-07-18T02:39:06;2.38;;;0.40;;
44046;SDS011;29713;-33.888;151.150;2022-07-18T02:41:35;0.88;;;0.30;;
44046;SDS011;29713;-33.888;151.150;2022-07-18T02:44:03;1.00;;;0.20;;
44046;SDS011;29713;-33.888;151.150;2022-07-18T02:46:31;0.50;;;0.15;;
44046;SDS011;29713;-33.888;151.150;2022-07-18T02:48:59;2.10;;;0.35;;
44046;SDS011;29713;-33.888;151.150;2022-07-18T02:51:27;0.35;;;0.10;;
44046;SDS011;29713;-33.888;151.150;2022-07-18T02:53:54;0.65;;;0.20;;
44046;SDS011;29713;-33.888;151.150;2022-07-18T02:56:21;0.68;;;0.30;;
44046;SDS011;29713;-33.888;151.150;2022-07-18T02:58:49;0.93;;;0.20;;
44046;SDS011;29713;-33.888;151.150;2022-07-18T03:01:16;1.20;;;0.32;;
44046;SDS011;29713;-33.888;151.150;2022-07-18T03:03:44;0.30;;;0.20;;
44046;SDS011;29713;-33.888;151.150;2022-07-18T03:06:11;1.23;;;0.20;;
44046;SDS011;29713;-33.888;151.150;2022-07-18T03:08:38;1.55;;;0.50;;
44046;SDS011;29713;-33.888;151.150;2022-07-18T03:11:06;1.45;;;0.30;;
44046;SDS011;29713;-33.888;151.150;2022-07-18T03:13:33;0.70;;;0.20;;
44046;SDS011;29713;-33.888;151.150;2022-07-18T03:16:00;0.32;;;0.20;;
44046;SDS011;29713;-33.888;151.150;2022-07-18T03:18:28;2.65;;;0.20;;
44046;SDS011;29713;-33.888;151.150;2022-07-18T03:20:55;0.82;;;0.30;;
44046;SDS011;29713;-33.888;151.150;2022-07-18T03:23:22;0.32;;;0.20;;
44046;SDS011;29713;-33.888;151.150;2022-07-18T03:25:50;0.52;;;0.20;;
44046;SDS011;29713;-33.888;151.150;2022-07-18T03:28:17;0.80;;;0.32;;
44046;SDS011;29713;-33.888;151.150;2022-07-18T03:30:44;0.63;;;0.30;;
44046;SDS011;29713;-33.888;151.150;2022-07-18T03:33:11;0.88;;;0.40;;
44046;SDS011;29713;-33.888;151.150;2022-07-18T03:35:39;1.42;;;0.30;;
44046;SDS011;29713;-33.888;151.150;2022-07-18T03:38:06;1.13;;;0.40;;
44046;SDS011;29713;-33.888;151.150;2022-07-18T03:40:33;1.33;;;0.20;;
44046;SDS011;29713;-33.888;151.150;2022-07-18T03:43:01;0.20;;;0.13;;
44046;SDS011;29713;-33.888;151.150;2022-07-18T03:45:28;1.40;;;0.52;;
44046;SDS011;29713;-33.888;151.150;2022-07-18T03:47:55;0.65;;;0.30;;
44046;SDS011;29713;-33.888;151.150;2022-07-18T03:50:23;1.90;;;0.43;;
44046;SDS011;29713;-33.888;151.150;2022-07-18T03:52:50;4.18;;;0.30;;
44046;SDS011;29713;-33.888;151.150;2022-07-18T03:55:17;0.90;;;0.35;;
44046;SDS011;29713;-33.888;151.150;2022-07-18T03:57:45;3.75;;;0.47;;
44046;SDS011;29713;-33.888;151.150;2022-07-18T04:00:13;1.48;;;0.52;;
44046;SDS011;29713;-33.888;151.150;2022-07-18T04:02:41;0.80;;;0.40;;
44046;SDS011;29713;-33.888;151.150;2022-07-18T04:05:10;1.50;;;0.40;;
44046;SDS011;29713;-33.888;151.150;2022-07-18T04:07:38;1.85;;;0.60;;
44046;SDS011;29713;-33.888;151.150;2022-07-18T04:10:06;1.10;;;0.30;;
44046;SDS011;29713;-33.888;151.150;2022-07-18T04:12:34;2.25;;;0.65;;
44046;SDS011;29713;-33.888;151.150;2022-07-18T04:15:10;1.20;;;0.43;;
44046;SDS011;29713;-33.888;151.150;2022-07-18T04:17:37;0.95;;;0.30;;
44046;SDS011;29713;-33.888;151.150;2022-07-18T04:20:04;1.88;;;0.43;;
44046;SDS011;29713;-33.888;151.150;2022-07-18T04:22:43;0.70;;;0.40;;
44046;SDS011;29713;-33.888;151.150;2022-07-18T04:25:18;1.05;;;0.32;;
44046;SDS011;29713;-33.888;151.150;2022-07-18T04:27:47;1.30;;;0.40;;
44046;SDS011;29713;-33.888;151.150;2022-07-18T04:30:15;2.63;;;0.50;;
44046;SDS011;29713;-33.888;151.150;2022-07-18T04:32:44;0.30;;;0.20;;
44046;SDS011;29713;-33.888;151.150;2022-07-18T04:35:12;0.63;;;0.30;;
44046;SDS011;29713;-33.888;151.150;2022-07-18T04:37:40;2.55;;;0.50;;
44046;SDS011;29713;-33.888;151.150;2022-07-18T04:40:08;0.90;;;0.17;;
44046;SDS011;29713;-33.888;151.150;2022-07-18T04:42:37;1.35;;;0.45;;
44046;SDS011;29713;-33.888;151.150;2022-07-18T04:45:05;2.42;;;0.45;;
44046;SDS011;29713;-33.888;151.150;2022-07-18T04:47:33;1.75;;;0.20;;
44046;SDS011;29713;-33.888;151.150;2022-07-18T04:50:01;1.20;;;0.30;;
44046;SDS011;29713;-33.888;151.150;2022-07-18T04:52:38;1.40;;;0.40;;
44046;SDS011;29713;-33.888;151.150;2022-07-18T04:55:08;0.40;;;0.20;;
44046;SDS011;29713;-33.888;151.150;2022-07-18T04:57:36;0.57;;;0.20;;
44046;SDS011;29713;-33.888;151.150;2022-07-18T05:00:05;1.27;;;0.20;;
44046;SDS011;29713;-33.888;151.150;2022-07-18T05:02:38;0.70;;;0.37;;
44046;SDS011;29713;-33.888;151.150;2022-07-18T05:05:07;0.82;;;0.22;;
44046;SDS011;29713;-33.888;151.150;2022-07-18T05:07:35;0.43;;;0.20;;
44046;SDS011;29713;-33.888;151.150;2022-07-18T05:10:05;1.73;;;0.30;;
44046;SDS011;29713;-33.888;151.150;2022-07-18T05:12:36;0.68;;;0.22;;
44046;SDS011;29713;-33.888;151.150;2022-07-18T05:15:05;0.50;;;0.30;;
44046;SDS011;29713;-33.888;151.150;2022-07-18T05:17:35;0.73;;;0.22;;
44046;SDS011;29713;-33.888;151.150;2022-07-18T05:20:04;1.45;;;0.50;;
44046;SDS011;29713;-33.888;151.150;2022-07-18T05:22:33;0.40;;;0.25;;
44046;SDS011;29713;-33.888;151.150;2022-07-18T05:25:02;1.40;;;0.20;;
44046;SDS011;29713;-33.888;151.150;2022-07-18T05:27:31;0.60;;;0.20;;
44046;SDS011;29713;-33.888;151.150;2022-07-18T05:29:59;1.27;;;0.23;;
44046;SDS011;29713;-33.888;151.150;2022-07-18T05:32:27;0.73;;;0.27;;
44046;SDS011;29713;-33.888;151.150;2022-07-18T05:34:55;0.53;;;0.30;;
44046;SDS011;29713;-33.888;151.150;2022-07-18T05:37:22;0.60;;;0.40;;
44046;SDS011;29713;-33.888;151.150;2022-07-18T05:39:49;0.97;;;0.30;;
44046;SDS011;29713;-33.888;151.150;2022-07-18T05:42:17;1.17;;;0.40;;
44046;SDS011;29713;-33.888;151.150;2022-07-18T05:44:45;1.63;;;0.40;;
44046;SDS011;29713;-33.888;151.150;2022-07-18T05:47:12;2.23;;;0.40;;
44046;SDS011;29713;-33.888;151.150;2022-07-18T05:49:40;2.07;;;0.47;;
44046;SDS011;29713;-33.888;151.150;2022-07-18T05:52:07;1.40;;;0.50;;
44046;SDS011;29713;-33.888;151.150;2022-07-18T05:54:34;0.57;;;0.40;;
44046;SDS011;29713;-33.888;151.150;2022-07-18T05:57:02;1.07;;;0.30;;
44046;SDS011;29713;-33.888;151.150;2022-07-18T05:59:29;1.07;;;0.33;;
44046;SDS011;29713;-33.888;151.150;2022-07-18T06:01:56;1.87;;;0.40;;
44046;SDS011;29713;-33.888;151.150;2022-07-18T06:04:24;2.83;;;0.50;;
44046;SDS011;29713;-33.888;151.150;2022-07-18T06:06:51;0.70;;;0.30;;
44046;SDS011;29713;-33.888;151.150;2022-07-18T06:09:18;0.97;;;0.30;;
44046;SDS011;29713;-33.888;151.150;2022-07-18T06:11:46;1.77;;;0.33;;
44046;SDS011;29713;-33.888;151.150;2022-07-18T06:14:13;0.40;;;0.20;;
44046;SDS011;29713;-33.888;151.150;2022-07-18T06:16:40;0.50;;;0.37;;
44046;SDS011;29713;-33.888;151.150;2022-07-18T06:19:08;0.90;;;0.20;;
44046;SDS011;29713;-33.888;151.150;2022-07-18T06:21:35;0.93;;;0.47;;
44046;SDS011;29713;-33.888;151.150;2022-07-18T06:24:02;4.30;;;0.77;;
44046;SDS011;29713;-33.888;151.150;2022-07-18T06:26:30;0.70;;;0.20;;
44046;SDS011;29713;-33.888;151.150;2022-07-18T06:28:57;1.40;;;0.40;;
44046;SDS011;29713;-33.888;151.150;2022-07-18T06:31:25;1.97;;;0.50;;
44046;SDS011;29713;-33.888;151.150;2022-07-18T06:33:52;1.67;;;0.30;;
44046;SDS011;29713;-33.888;151.150;2022-07-18T06:36:19;3.13;;;0.60;;
44046;SDS011;29713;-33.888;151.150;2022-07-18T06:38:49;0.50;;;0.40;;
44046;SDS011;29713;-33.888;151.150;2022-07-18T06:41:17;1.33;;;0.60;;
44046;SDS011;29713;-33.888;151.150;2022-07-18T06:43:46;2.40;;;0.50;;
44046;SDS011;29713;-33.888;151.150;2022-07-18T06:46:13;0.90;;;0.50;;
44046;SDS011;29713;-33.888;151.150;2022-07-18T06:48:40;2.00;;;0.40;;
44046;SDS011;29713;-33.888;151.150;2022-07-18T06:51:08;1.20;;;0.50;;
44046;SDS011;29713;-33.888;151.150;2022-07-18T06:53:35;1.63;;;0.50;;
44046;SDS011;29713;-33.888;151.150;2022-07-18T06:56:02;1.20;;;0.30;;
44046;SDS011;29713;-33.888;151.150;2022-07-18T06:58:30;0.77;;;0.40;;
44046;SDS011;29713;-33.888;151.150;2022-07-18T07:00:59;1.00;;;0.40;;
44046;SDS011;29713;-33.888;151.150;2022-07-18T07:03:26;3.87;;;0.70;;
44046;SDS011;29713;-33.888;151.150;2022-07-18T07:05:54;2.60;;;0.80;;
44046;SDS011;29713;-33.888;151.150;2022-07-18T07:08:21;1.17;;;0.60;;
44046;SDS011;29713;-33.888;151.150;2022-07-18T07:10:48;1.23;;;0.70;;
44046;SDS011;29713;-33.888;151.150;2022-07-18T07:13:15;2.87;;;0.80;;
44046;SDS011;29713;-33.888;151.150;2022-07-18T07:15:43;2.70;;;0.80;;
44046;SDS011;29713;-33.888;151.150;2022-07-18T07:18:10;1.43;;;0.90;;
44046;SDS011;29713;-33.888;151.150;2022-07-18T07:20:37;2.80;;;0.97;;
44046;SDS011;29713;-33.888;151.150;2022-07-18T07:23:05;2.03;;;1.00;;
44046;SDS011;29713;-33.888;151.150;2022-07-18T07:25:36;5.07;;;1.10;;
44046;SDS011;29713;-33.888;151.150;2022-07-18T07:28:04;4.00;;;0.90;;
44046;SDS011;29713;-33.888;151.150;2022-07-18T07:30:32;1.87;;;0.90;;
44046;SDS011;29713;-33.888;151.150;2022-07-18T07:33:01;1.97;;;0.80;;
44046;SDS011;29713;-33.888;151.150;2022-07-18T07:35:29;3.03;;;0.90;;
44046;SDS011;29713;-33.888;151.150;2022-07-18T07:37:57;2.20;;;0.90;;
44046;SDS011;29713;-33.888;151.150;2022-07-18T07:40:26;1.30;;;0.80;;
44046;SDS011;29713;-33.888;151.150;2022-07-18T07:43:11;1.80;;;0.90;;
44046;SDS011;29713;-33.888;151.150;2022-07-18T07:45:40;1.93;;;1.10;;
44046;SDS011;29713;-33.888;151.150;2022-07-18T07:48:08;3.00;;;1.00;;
44046;SDS011;29713;-33.888;151.150;2022-07-18T07:50:35;0.83;;;0.80;;
44046;SDS011;29713;-33.888;151.150;2022-07-18T07:53:03;1.90;;;0.90;;
44046;SDS011;29713;-33.888;151.150;2022-07-18T07:55:30;4.13;;;1.13;;
44046;SDS011;29713;-33.888;151.150;2022-07-18T07:57:58;3.63;;;1.20;;
44046;SDS011;29713;-33.888;151.150;2022-07-18T08:00:26;1.50;;;0.83;;
44046;SDS011;29713;-33.888;151.150;2022-07-18T08:02:58;2.43;;;1.27;;
44046;SDS011;29713;-33.888;151.150;2022-07-18T08:05:28;3.73;;;1.40;;
44046;SDS011;29713;-33.888;151.150;2022-07-18T08:07:58;2.50;;;1.20;;
44046;SDS011;29713;-33.888;151.150;2022-07-18T08:10:27;3.20;;;1.53;;
44046;SDS011;29713;-33.888;151.150;2022-07-18T08:12:56;4.30;;;2.10;;
44046;SDS011;29713;-33.888;151.150;2022-07-18T08:15:23;2.77;;;1.60;;
44046;SDS011;29713;-33.888;151.150;2022-07-18T08:17:51;4.50;;;2.03;;
44046;SDS011;29713;-33.888;151.150;2022-07-18T08:20:19;4.50;;;1.90;;
44046;SDS011;29713;-33.888;151.150;2022-07-18T08:22:55;3.50;;;1.90;;
44046;SDS011;29713;-33.888;151.150;2022-07-18T08:25:24;3.27;;;1.40;;
44046;SDS011;29713;-33.888;151.150;2022-07-18T08:27:53;2.83;;;1.70;;
44046;SDS011;29713;-33.888;151.150;2022-07-18T08:30:21;5.70;;;2.10;;
44046;SDS011;29713;-33.888;151.150;2022-07-18T08:32:48;3.67;;;1.57;;
44046;SDS011;29713;-33.888;151.150;2022-07-18T08:35:16;2.27;;;1.40;;
44046;SDS011;29713;-33.888;151.150;2022-07-18T08:37:44;3.97;;;1.50;;
44046;SDS011;29713;-33.888;151.150;2022-07-18T08:40:11;4.90;;;1.43;;
44046;SDS011;29713;-33.888;151.150;2022-07-18T08:42:40;2.07;;;1.33;;
44046;SDS011;29713;-33.888;151.150;2022-07-18T08:45:07;3.27;;;1.27;;
44046;SDS011;29713;-33.888;151.150;2022-07-18T08:47:35;5.60;;;1.80;;
44046;SDS011;29713;-33.888;151.150;2022-07-18T08:50:03;3.10;;;1.50;;
44046;SDS011;29713;-33.888;151.150;2022-07-18T08:52:30;3.73;;;1.63;;
44046;SDS011;29713;-33.888;151.150;2022-07-18T08:55:01;5.10;;;1.60;;
44046;SDS011;29713;-33.888;151.150;2022-07-18T08:57:29;4.13;;;1.80;;
44046;SDS011;29713;-33.888;151.150;2022-07-18T08:59:56;4.80;;;1.57;;
44046;SDS011;29713;-33.888;151.150;2022-07-18T09:02:25;3.33;;;1.70;;
44046;SDS011;29713;-33.888;151.150;2022-07-18T09:04:53;3.33;;;1.40;;
44046;SDS011;29713;-33.888;151.150;2022-07-18T09:07:29;3.50;;;1.43;;
44046;SDS011;29713;-33.888;151.150;2022-07-18T09:10:01;5.13;;;1.70;;
44046;SDS011;29713;-33.888;151.150;2022-07-18T09:12:31;2.90;;;1.60;;
44046;SDS011;29713;-33.888;151.150;2022-07-18T09:15:08;4.17;;;1.30;;
44046;SDS011;29713;-33.888;151.150;2022-07-18T09:17:36;3.00;;;1.10;;
44046;SDS011;29713;-33.888;151.150;2022-07-18T09:20:09;2.03;;;0.93;;
44046;SDS011;29713;-33.888;151.150;2022-07-18T09:22:40;2.57;;;1.30;;
44046;SDS011;29713;-33.888;151.150;2022-07-18T09:25:14;3.67;;;1.60;;
44046;SDS011;29713;-33.888;151.150;2022-07-18T09:27:47;2.77;;;1.20;;
44046;SDS011;29713;-33.888;151.150;2022-07-18T09:30:20;4.20;;;1.23;;
44046;SDS011;29713;-33.888;151.150;2022-07-18T09:32:53;4.10;;;1.20;;
44046;SDS011;29713;-33.888;151.150;2022-07-18T09:35:35;2.17;;;1.40;;
44046;SDS011;29713;-33.888;151.150;2022-07-18T09:38:10;3.43;;;1.30;;
44046;SDS011;29713;-33.888;151.150;2022-07-18T09:40:48;3.43;;;1.30;;
44046;SDS011;29713;-33.888;151.150;2022-07-18T09:43:21;1.53;;;0.90;;
44046;SDS011;29713;-33.888;151.150;2022-07-18T09:45:51;2.47;;;1.27;;
44046;SDS011;29713;-33.888;151.150;2022-07-18T09:48:24;1.83;;;1.13;;
44046;SDS011;29713;-33.888;151.150;2022-07-18T09:50:56;1.63;;;1.03;;
44046;SDS011;29713;-33.888;151.150;2022-07-18T09:53:26;1.73;;;1.40;;
44046;SDS011;29713;-33.888;151.150;2022-07-18T09:55:59;2.60;;;1.33;;
44046;SDS011;29713;-33.888;151.150;2022-07-18T09:58:31;2.07;;;1.33;;
44046;SDS011;29713;-33.888;151.150;2022-07-18T10:01:00;2.13;;;1.00;;
44046;SDS011;29713;-33.888;151.150;2022-07-18T10:03:29;1.63;;;1.00;;
44046;SDS011;29713;-33.888;151.150;2022-07-18T10:05:57;2.17;;;0.97;;
44046;SDS011;29713;-33.888;151.150;2022-07-18T10:08:27;2.00;;;1.10;;
44046;SDS011;29713;-33.888;151.150;2022-07-18T10:10:59;1.77;;;1.03;;
44046;SDS011;29713;-33.888;151.150;2022-07-18T10:13:28;2.40;;;0.93;;
44046;SDS011;29713;-33.888;151.150;2022-07-18T10:15:57;1.63;;;1.10;;
44046;SDS011;29713;-33.888;151.150;2022-07-18T10:18:25;1.77;;;1.10;;
44046;SDS011;29713;-33.888;151.150;2022-07-18T10:26:14;2.10;;;0.90;;
44046;SDS011;29713;-33.888;151.150;2022-07-18T10:31:25;1.73;;;1.10;;
44046;SDS011;29713;-33.888;151.150;2022-07-18T10:36:37;3.97;;;1.83;;
44046;SDS011;29713;-33.888;151.150;2022-07-18T10:39:08;7.47;;;1.90;;
44046;SDS011;29713;-33.888;151.150;2022-07-18T10:57:30;4.43;;;2.40;;
44046;SDS011;29713;-33.888;151.150;2022-07-18T11:00:24;5.97;;;3.23;;
44046;SDS011;29713;-33.888;151.150;2022-07-18T11:03:03;5.23;;;2.73;;
44046;SDS011;29713;-33.888;151.150;2022-07-18T11:16:04;6.23;;;2.17;;
44046;SDS011;29713;-33.888;151.150;2022-07-18T11:21:23;4.67;;;1.60;;
44046;SDS011;29713;-33.888;151.150;2022-07-18T11:24:03;3.47;;;1.60;;
44046;SDS011;29713;-33.888;151.150;2022-07-18T11:26:45;3.87;;;1.50;;
44046;SDS011;29713;-33.888;151.150;2022-07-18T11:29:15;3.03;;;1.40;;
44046;SDS011;29713;-33.888;151.150;2022-07-18T11:32:01;3.40;;;1.40;;
44046;SDS011;29713;-33.888;151.150;2022-07-18T11:34:30;3.00;;;1.43;;
44046;SDS011;29713;-33.888;151.150;2022-07-18T11:36:57;2.50;;;1.30;;
44046;SDS011;29713;-33.888;151.150;2022-07-18T11:39:29;3.90;;;1.47;;
44046;SDS011;29713;-33.888;151.150;2022-07-18T11:41:59;2.73;;;1.50;;
44046;SDS011;29713;-33.888;151.150;2022-07-18T11:44:27;3.30;;;2.03;;
44046;SDS011;29713;-33.888;151.150;2022-07-18T11:47:08;3.37;;;1.70;;
44046;SDS011;29713;-33.888;151.150;2022-07-18T11:49:37;5.03;;;1.73;;
44046;SDS011;29713;-33.888;151.150;2022-07-18T11:52:05;4.50;;;1.93;;
44046;SDS011;29713;-33.888;151.150;2022-07-18T11:54:33;2.50;;;1.47;;
44046;SDS011;29713;-33.888;151.150;2022-07-18T11:57:01;2.80;;;1.50;;
44046;SDS011;29713;-33.888;151.150;2022-07-18T11:59:38;2.53;;;1.40;;
44046;SDS011;29713;-33.888;151.150;2022-07-18T12:02:08;4.40;;;1.50;;
44046;SDS011;29713;-33.888;151.150;2022-07-18T12:04:36;4.80;;;1.80;;
44046;SDS011;29713;-33.888;151.150;2022-07-18T12:07:20;3.43;;;1.87;;
44046;SDS011;29713;-33.888;151.150;2022-07-18T12:09:50;5.33;;;1.70;;
44046;SDS011;29713;-33.888;151.150;2022-07-18T12:12:20;4.30;;;1.83;;
44046;SDS011;29713;-33.888;151.150;2022-07-18T12:14:58;3.83;;;1.63;;
44046;SDS011;29713;-33.888;151.150;2022-07-18T12:17:28;4.40;;;1.87;;
44046;SDS011;29713;-33.888;151.150;2022-07-18T12:20:10;4.27;;;1.80;;
44046;SDS011;29713;-33.888;151.150;2022-07-18T12:25:38;6.17;;;2.20;;
44046;SDS011;29713;-33.888;151.150;2022-07-18T12:28:15;3.17;;;1.53;;
44046;SDS011;29713;-33.888;151.150;2022-07-18T12:30:44;6.20;;;1.73;;
44046;SDS011;29713;-33.888;151.150;2022-07-18T12:33:12;2.93;;;1.67;;
44046;SDS011;29713;-33.888;151.150;2022-07-18T12:35:39;2.73;;;1.70;;
44046;SDS011;29713;-33.888;151.150;2022-07-18T12:38:11;4.53;;;1.80;;
44046;SDS011;29713;-33.888;151.150;2022-07-18T12:43:35;2.60;;;1.17;;
44046;SDS011;29713;-33.888;151.150;2022-07-18T12:46:05;3.73;;;1.80;;
44046;SDS011;29713;-33.888;151.150;2022-07-18T12:48:34;2.50;;;1.10;;
44046;SDS011;29713;-33.888;151.150;2022-07-18T12:51:03;2.90;;;1.30;;
44046;SDS011;29713;-33.888;151.150;2022-07-18T12:53:34;3.10;;;1.30;;
44046;SDS011;29713;-33.888;151.150;2022-07-18T12:56:03;3.07;;;1.10;;
44046;SDS011;29713;-33.888;151.150;2022-07-18T12:58:31;2.47;;;1.23;;
44046;SDS011;29713;-33.888;151.150;2022-07-18T13:00:58;2.70;;;1.30;;
44046;SDS011;29713;-33.888;151.150;2022-07-18T13:03:26;2.07;;;1.23;;
44046;SDS011;29713;-33.888;151.150;2022-07-18T13:05:53;3.17;;;1.17;;
44046;SDS011;29713;-33.888;151.150;2022-07-18T13:08:21;4.80;;;1.40;;
44046;SDS011;29713;-33.888;151.150;2022-07-18T13:10:49;2.90;;;1.13;;
44046;SDS011;29713;-33.888;151.150;2022-07-18T13:13:16;2.17;;;1.10;;
44046;SDS011;29713;-33.888;151.150;2022-07-18T13:15:43;3.33;;;1.20;;
44046;SDS011;29713;-33.888;151.150;2022-07-18T13:18:11;2.97;;;1.30;;
44046;SDS011;29713;-33.888;151.150;2022-07-18T13:20:40;2.47;;;0.90;;
44046;SDS011;29713;-33.888;151.150;2022-07-18T13:23:07;4.73;;;1.57;;
44046;SDS011;29713;-33.888;151.150;2022-07-18T13:25:36;1.97;;;1.07;;
44046;SDS011;29713;-33.888;151.150;2022-07-18T13:28:04;2.03;;;1.00;;
44046;SDS011;29713;-33.888;151.150;2022-07-18T13:30:31;2.43;;;1.23;;
44046;SDS011;29713;-33.888;151.150;2022-07-18T13:32:59;4.03;;;1.23;;
44046;SDS011;29713;-33.888;151.150;2022-07-18T13:35:26;3.23;;;1.20;;
44046;SDS011;29713;-33.888;151.150;2022-07-18T13:37:54;4.87;;;1.00;;
44046;SDS011;29713;-33.888;151.150;2022-07-18T13:40:21;2.83;;;1.00;;
44046;SDS011;29713;-33.888;151.150;2022-07-18T13:42:49;2.73;;;1.07;;
44046;SDS011;29713;-33.888;151.150;2022-07-18T13:45:16;3.30;;;0.90;;
44046;SDS011;29713;-33.888;151.150;2022-07-18T13:47:44;2.17;;;1.10;;
44046;SDS011;29713;-33.888;151.150;2022-07-18T13:50:11;2.03;;;0.90;;
44046;SDS011;29713;-33.888;151.150;2022-07-18T13:52:39;4.53;;;1.07;;
44046;SDS011;29713;-33.888;151.150;2022-07-18T13:55:06;1.97;;;1.10;;
44046;SDS011;29713;-33.888;151.150;2022-07-18T13:57:34;2.80;;;1.00;;
44046;SDS011;29713;-33.888;151.150;2022-07-18T14:00:04;2.70;;;0.90;;
44046;SDS011;29713;-33.888;151.150;2022-07-18T14:02:32;2.60;;;0.93;;
44046;SDS011;29713;-33.888;151.150;2022-07-18T14:04:59;3.17;;;1.03;;
44046;SDS011;29713;-33.888;151.150;2022-07-18T14:07:26;2.77;;;1.00;;
44046;SDS011;29713;-33.888;151.150;2022-07-18T14:09:54;1.70;;;0.93;;
44046;SDS011;29713;-33.888;151.150;2022-07-18T14:12:21;1.87;;;1.20;;
44046;SDS011;29713;-33.888;151.150;2022-07-18T14:14:48;1.40;;;1.00;;
44046;SDS011;29713;-33.888;151.150;2022-07-18T14:17:16;4.37;;;1.37;;
44046;SDS011;29713;-33.888;151.150;2022-07-18T14:19:43;1.93;;;0.90;;
44046;SDS011;29713;-33.888;151.150;2022-07-18T14:22:10;1.83;;;0.73;;
44046;SDS011;29713;-33.888;151.150;2022-07-18T14:24:38;2.00;;;0.90;;
44046;SDS011;29713;-33.888;151.150;2022-07-18T14:27:05;2.23;;;0.90;;
44046;SDS011;29713;-33.888;151.150;2022-07-18T14:29:32;3.37;;;1.20;;
44046;SDS011;29713;-33.888;151.150;2022-07-18T14:32:00;1.93;;;1.20;;
44046;SDS011;29713;-33.888;151.150;2022-07-18T14:34:27;2.97;;;0.67;;
44046;SDS011;29713;-33.888;151.150;2022-07-18T14:36:54;2.70;;;0.80;;
44046;SDS011;29713;-33.888;151.150;2022-07-18T14:39:22;2.43;;;0.83;;
44046;SDS011;29713;-33.888;151.150;2022-07-18T14:41:49;3.23;;;0.80;;
44046;SDS011;29713;-33.888;151.150;2022-07-18T14:44:16;1.50;;;0.70;;
44046;SDS011;29713;-33.888;151.150;2022-07-18T14:46:44;1.50;;;0.70;;
44046;SDS011;29713;-33.888;151.150;2022-07-18T14:49:11;3.37;;;0.90;;
44046;SDS011;29713;-33.888;151.150;2022-07-18T14:51:39;2.87;;;1.17;;
44046;SDS011;29713;-33.888;151.150;2022-07-18T14:54:06;2.53;;;0.83;;
44046;SDS011;29713;-33.888;151.150;2022-07-18T14:56:35;3.50;;;0.83;;
44046;SDS011;29713;-33.888;151.150;2022-07-18T14:59:03;4.67;;;0.70;;
44046;SDS011;29713;-33.888;151.150;2022-07-18T15:01:30;2.43;;;0.70;;
44046;SDS011;29713;-33.888;151.150;2022-07-18T15:03:58;2.47;;;0.70;;